createdAt,value
2023-01-26T00:04:57.397Z,1.19
2023-01-26T00:10:12.649Z,1.31
2023-01-26T00:15:29.194Z,1.17
2023-01-26T00:20:50.470Z,1.23
2023-01-26T00:23:24.526Z,1.31
2023-01-26T00:25:54.360Z,1.30
2023-01-26T00:31:08.351Z,1.23
2023-01-26T00:36:28.773Z,1.38
2023-01-26T00:42:07.454Z,1.21
2023-01-26T00:47:25.720Z,1.42
2023-01-26T00:52:41.991Z,0.98
2023-01-26T00:58:00.919Z,0.89
2023-01-26T01:03:19.441Z,0.85
2023-01-26T01:05:50.545Z,1.06
2023-01-26T01:08:20.247Z,0.97
2023-01-26T01:13:32.423Z,0.78
2023-01-26T01:16:02.358Z,0.88
2023-01-26T01:18:33.115Z,0.77
2023-01-26T01:23:43.987Z,1.02
2023-01-26T01:28:58.985Z,1.32
2023-01-26T01:34:17.560Z,1.25
2023-01-26T01:39:29.224Z,1.37
2023-01-26T01:42:00.340Z,1.16
2023-01-26T01:47:26.739Z,1.25
2023-01-26T01:52:44.022Z,0.82
2023-01-26T01:57:59.023Z,0.67
2023-01-26T02:03:20.068Z,0.89
2023-01-26T02:08:35.556Z,1.09
2023-01-26T02:11:09.103Z,1.03
2023-01-26T02:16:30.513Z,1.05
2023-01-26T02:21:47.393Z,1.12
2023-01-26T02:27:00.619Z,1.06
2023-01-26T02:29:31.208Z,0.95
2023-01-26T02:34:50.886Z,1.08
2023-01-26T02:40:02.923Z,1.03
2023-01-26T02:42:43.667Z,0.96
2023-01-26T02:48:05.570Z,1.21
2023-01-26T02:56:06.190Z,1.26
2023-01-26T03:01:25.230Z,1.35
2023-01-26T03:06:41.055Z,1.20
2023-01-26T03:09:11.099Z,1.14
2023-01-26T03:11:42.739Z,1.20
2023-01-26T03:17:00.318Z,1.25
2023-01-26T03:22:37.974Z,1.02
2023-01-26T03:27:55.976Z,0.92
2023-01-26T03:30:25.870Z,1.07
2023-01-26T03:35:39.021Z,1.27
2023-01-26T03:41:19.905Z,1.31
2023-01-26T03:46:59.436Z,1.23
2023-01-26T03:52:35.265Z,1.14
2023-01-26T03:57:46.732Z,1.18
2023-01-26T04:03:29.306Z,1.19
2023-01-26T04:08:43.593Z,1.20
2023-01-26T04:11:13.595Z,0.99
2023-01-26T04:16:54.740Z,1.10
2023-01-26T04:22:06.084Z,0.95
2023-01-26T04:24:36.042Z,0.89
2023-01-26T04:29:56.062Z,0.96
2023-01-26T04:35:15.033Z,1.00
2023-01-26T04:40:35.409Z,1.17
2023-01-26T04:46:03.825Z,1.10
2023-01-26T04:51:23.481Z,1.11
2023-01-26T04:53:54.310Z,1.09
2023-01-26T04:56:27.876Z,1.14
2023-01-26T05:04:37.633Z,1.12
2023-01-26T05:09:50.047Z,1.06
2023-01-26T05:12:34.893Z,0.96
2023-01-26T05:15:05.047Z,0.84
2023-01-26T05:20:27.650Z,0.82
2023-01-26T05:23:00.019Z,0.56
2023-01-26T05:25:29.782Z,0.50
2023-01-26T05:27:59.516Z,0.57
2023-01-26T05:30:29.351Z,0.63
2023-01-26T05:33:05.801Z,0.66
2023-01-26T05:38:15.725Z,0.85
2023-01-26T05:43:35.420Z,0.91
2023-01-26T05:48:51.043Z,0.96
2023-01-26T05:54:08.673Z,1.17
2023-01-26T05:59:26.977Z,1.22
2023-01-26T06:04:46.530Z,1.29
2023-01-26T06:09:58.984Z,1.13
2023-01-26T06:15:14.627Z,0.98
2023-01-26T06:20:30.554Z,0.99
2023-01-26T06:23:02.588Z,0.81
2023-01-26T06:28:21.635Z,0.84
2023-01-26T06:33:51.216Z,0.75
2023-01-26T06:36:21.043Z,0.50
2023-01-26T06:41:35.960Z,0.77
2023-01-26T06:44:06.640Z,0.79
2023-01-26T06:49:17.416Z,0.71
2023-01-26T06:52:00.705Z,0.59
2023-01-26T06:54:30.683Z,0.60
2023-01-26T06:59:41.158Z,0.55
2023-01-26T07:05:03.206Z,0.65
2023-01-26T07:07:33.010Z,0.47
2023-01-26T07:12:51.441Z,0.53
2023-01-26T07:15:21.165Z,0.43
2023-01-26T07:17:51.824Z,0.36
2023-01-26T07:20:21.621Z,0.30
2023-01-26T07:25:40.065Z,0.43
2023-01-26T07:31:01.612Z,0.50
2023-01-26T07:36:22.313Z,0.34
2023-01-26T07:38:52.074Z,0.35
2023-01-26T07:44:05.710Z,0.29
2023-01-26T07:46:35.671Z,0.22
2023-01-26T07:51:51.111Z,0.26
2023-01-26T07:57:10.631Z,0.50
2023-01-26T08:02:28.930Z,0.66
2023-01-26T08:07:48.090Z,0.78
2023-01-26T08:13:07.178Z,0.80
2023-01-26T08:18:25.549Z,0.44
2023-01-26T08:23:37.260Z,0.12
2023-01-26T08:28:56.214Z,0.12
2023-01-26T08:31:28.467Z,0.30
2023-01-26T08:36:37.797Z,0.13
2023-01-26T08:41:48.913Z,0.09
2023-01-26T08:47:05.764Z,0.33
2023-01-26T08:52:23.569Z,0.29
2023-01-26T08:57:38.436Z,0.22
2023-01-26T09:00:10.917Z,0.18
2023-01-26T09:05:31.769Z,0.36
2023-01-26T09:10:45.262Z,0.56
2023-01-26T09:16:23.334Z,0.65
2023-01-26T09:18:53.613Z,0.60
2023-01-26T09:21:24.695Z,0.56
2023-01-26T09:26:38.807Z,0.76
2023-01-26T09:31:48.219Z,0.57
2023-01-26T09:34:18.059Z,0.56
2023-01-26T09:39:35.507Z,0.56
2023-01-26T09:44:53.839Z,0.66
2023-01-26T09:50:14.668Z,0.64
2023-01-26T09:55:31.580Z,0.87
2023-01-26T10:00:53.501Z,1.06
2023-01-26T10:03:27.582Z,1.22
2023-01-26T10:06:00.676Z,1.06
2023-01-26T10:08:30.601Z,0.95
2023-01-26T10:11:02.943Z,0.77
2023-01-26T10:16:19.099Z,0.95
2023-01-26T10:21:34.566Z,0.75
2023-01-26T10:24:05.921Z,0.64
2023-01-26T10:29:36.860Z,0.79
2023-01-26T10:32:07.522Z,0.90
2023-01-26T10:37:30.379Z,1.04
2023-01-26T10:42:58.527Z,1.31
2023-01-26T10:48:20.842Z,1.10
2023-01-26T10:53:37.462Z,0.76
2023-01-26T10:58:57.618Z,0.80
2023-01-26T11:01:28.485Z,0.84
2023-01-26T11:04:07.842Z,0.82
2023-01-26T11:09:31.635Z,1.13
2023-01-26T11:14:54.333Z,1.20
2023-01-26T11:23:29.379Z,0.98
2023-01-26T11:29:39.686Z,0.79
2023-01-26T11:35:08.777Z,0.92
2023-01-26T11:40:37.861Z,1.09
2023-01-26T11:46:24.464Z,0.82
2023-01-26T11:51:52.975Z,0.92
2023-01-26T11:54:53.941Z,0.81
2023-01-26T12:00:30.367Z,0.64
2023-01-26T12:03:16.360Z,0.61
2023-01-26T12:08:40.773Z,0.72
2023-01-26T12:13:53.603Z,0.56
2023-01-26T12:19:18.409Z,0.83
2023-01-26T12:25:08.166Z,0.72
2023-01-26T12:30:03.130Z,0.99
2023-01-26T12:35:18.295Z,0.76
2023-01-26T12:40:40.963Z,0.82
2023-01-26T12:46:06.788Z,0.76
2023-01-26T12:51:26.908Z,0.77
2023-01-26T12:54:00.052Z,0.77
2023-01-26T12:56:32.725Z,1.00
2023-01-26T12:59:07.414Z,0.93
2023-01-26T13:04:22.712Z,0.87
2023-01-26T13:10:13.764Z,0.62
2023-01-26T13:15:31.281Z,0.70
2023-01-26T13:20:49.214Z,0.64
2023-01-26T13:23:44.566Z,0.79
2023-01-26T13:29:32.336Z,0.86
2023-01-26T13:34:43.519Z,0.80
2023-01-26T13:42:22.935Z,0.65
2023-01-26T13:44:56.068Z,0.66
2023-01-26T13:50:29.744Z,0.70
2023-01-26T13:55:42.353Z,0.54
2023-01-26T13:58:15.813Z,0.63
2023-01-26T14:03:35.156Z,0.67
2023-01-26T14:08:55.641Z,0.83
2023-01-26T14:14:34.067Z,0.92
2023-01-26T14:19:43.520Z,0.77
2023-01-26T14:22:15.858Z,0.61
2023-01-26T14:30:29.971Z,0.41
2023-01-26T14:33:03.546Z,0.38
2023-01-26T14:35:34.926Z,0.28
2023-01-26T14:41:02.422Z,0.28
2023-01-26T14:46:25.878Z,0.53
2023-01-26T14:48:59.241Z,0.64
2023-01-26T15:02:40.483Z,0.68
2023-01-26T15:08:00.867Z,0.71
2023-01-26T15:13:26.658Z,0.80
2023-01-26T15:19:01.418Z,0.75
2023-01-26T15:27:14.979Z,0.48
2023-01-26T15:32:45.824Z,0.07
2023-01-26T15:38:14.071Z,0.21
2023-01-26T15:40:44.012Z,0.26
2023-01-26T15:46:01.597Z,0.30
2023-01-26T15:51:14.714Z,0.27
2023-01-26T15:56:31.741Z,0.46
2023-01-26T16:01:51.259Z,0.76
2023-01-26T16:04:23.346Z,0.54
2023-01-26T16:06:53.415Z,0.68
2023-01-26T16:09:24.770Z,0.67
2023-01-26T16:17:31.590Z,0.85
2023-01-26T16:22:44.465Z,0.61
2023-01-26T16:28:04.195Z,0.37
2023-01-26T16:30:34.977Z,0.27
2023-01-26T16:35:53.317Z,0.49
2023-01-26T16:41:18.529Z,0.67
2023-01-26T16:43:49.386Z,0.51
2023-01-26T16:46:19.475Z,0.53
2023-01-26T16:48:49.561Z,0.50
2023-01-26T16:54:11.363Z,0.56
2023-01-26T16:59:34.061Z,0.49
2023-01-26T17:04:53.381Z,0.46
2023-01-26T17:10:13.966Z,0.39
2023-01-26T17:15:32.212Z,0.31
2023-01-26T17:20:51.520Z,0.35
2023-01-26T17:26:09.783Z,0.26
2023-01-26T17:31:32.614Z,0.28
2023-01-26T17:36:45.986Z,0.28
2023-01-26T17:39:19.985Z,0.21
2023-01-26T17:41:49.684Z,0.11
2023-01-26T17:47:10.924Z,-0.10
2023-01-26T17:52:31.243Z,-0.01
2023-01-26T17:57:47.012Z,0.11
2023-01-26T18:02:59.633Z,-0.06
2023-01-26T18:08:15.862Z,0.06
2023-01-26T18:10:47.338Z,-0.05
2023-01-26T18:16:10.143Z,0.21
2023-01-26T18:21:39.932Z,-0.07
2023-01-26T18:26:56.952Z,0.03
2023-01-26T18:32:15.317Z,0.33
2023-01-26T18:34:45.126Z,0.14
2023-01-26T18:40:00.964Z,0.28
2023-01-26T18:45:18.938Z,0.34
2023-01-26T18:50:36.549Z,0.26
2023-01-26T18:58:40.419Z,0.40
2023-01-26T19:04:09.093Z,0.25
2023-01-26T19:09:34.520Z,0.23
2023-01-26T19:17:37.841Z,0.13
2023-01-26T19:20:12.773Z,0.11
2023-01-26T19:25:33.600Z,0.34
2023-01-26T19:30:45.103Z,0.21
2023-01-26T19:33:28.787Z,0.50
2023-01-26T19:36:00.298Z,0.36
2023-01-26T19:41:21.971Z,0.52
2023-01-26T19:46:48.314Z,0.38
2023-01-26T19:52:00.953Z,0.53
2023-01-26T19:54:30.776Z,0.59
2023-01-26T19:59:53.941Z,0.89
2023-01-26T20:02:23.788Z,0.66
2023-01-26T20:07:41.918Z,0.61
2023-01-26T20:10:13.692Z,0.29
2023-01-26T20:12:43.476Z,0.52
2023-01-26T20:15:14.427Z,0.60
2023-01-26T20:20:58.878Z,0.24
2023-01-26T20:26:17.869Z,-0.02
2023-01-26T20:31:33.509Z,0.07
2023-01-26T20:36:49.652Z,0.36
2023-01-26T20:42:07.847Z,0.38
2023-01-26T20:47:23.960Z,0.52
2023-01-26T20:52:39.002Z,0.79
2023-01-26T20:57:52.778Z,0.49
2023-01-26T21:03:14.479Z,0.03
2023-01-26T21:05:44.271Z,0.02
2023-01-26T21:11:07.400Z,0.23
2023-01-26T21:16:18.696Z,0.26
2023-01-26T21:18:49.511Z,0.39
2023-01-26T21:24:06.656Z,0.14
2023-01-26T21:29:17.397Z,0.43
2023-01-26T21:34:27.437Z,0.50
2023-01-26T21:36:57.236Z,0.51
2023-01-26T21:39:27.335Z,0.61
2023-01-26T21:41:58.275Z,0.57
2023-01-26T21:47:22.461Z,0.59
2023-01-26T21:52:51.670Z,0.52
2023-01-26T21:55:21.389Z,0.56
2023-01-26T22:00:55.620Z,0.43
2023-01-26T22:06:15.115Z,0.39
2023-01-26T22:08:46.429Z,0.30
2023-01-26T22:11:16.172Z,0.29
2023-01-26T22:16:39.313Z,0.24
2023-01-26T22:21:56.689Z,0.32
2023-01-26T22:27:18.754Z,0.16
2023-01-26T22:32:34.764Z,0.25
2023-01-26T22:37:48.940Z,0.29
2023-01-26T22:40:20.276Z,0.21
2023-01-26T22:45:31.432Z,0.29
2023-01-26T22:48:02.464Z,0.16
2023-01-26T22:53:21.455Z,0.12
2023-01-26T22:58:56.719Z,0.15
2023-01-26T23:03:55.838Z,0.14
2023-01-26T23:06:26.531Z,0.09
2023-01-26T23:11:41.798Z,0.36
2023-01-26T23:16:56.879Z,0.11
2023-01-26T23:22:10.740Z,0.12
2023-01-26T23:27:29.210Z,0.13
2023-01-26T23:32:42.460Z,0.01
2023-01-26T23:38:04.390Z,0.18
2023-01-26T23:40:35.827Z,0.16
2023-01-26T23:43:16.417Z,0.07
2023-01-26T23:45:39.888Z,-0.17
2023-01-26T23:50:58.679Z,-0.08
2023-01-26T23:56:18.851Z,-0.18
2023-01-26T23:58:48.370Z,-0.28
